sensor_id;sensor_type;location;lat;lon;timestamp;temperature;humidity
55016;DHT22;40919;43.236;21.590;2023-10-13T09:15:44;486.40;2380.80
55016;DHT22;40919;43.236;21.590;2023-10-13T09:18:28;461.70;2380.80
55016;DHT22;40919;43.236;21.590;2023-10-13T12:48:16;742.50;1817.60
55016;DHT22;40919;43.236;21.590;2023-10-13T12:51:03;742.50;1843.20
55016;DHT22;40919;43.236;21.590;2023-10-13T12:53:48;742.60;1817.60
55016;DHT22;40919;43.236;21.590;2023-10-13T12:56:15;742.80;1817.60
55016;DHT22;40919;43.236;21.590;2023-10-13T12:58:41;742.90;1766.40
55016;DHT22;40919;43.236;21.590;2023-10-13T13:01:07;742.90;1766.40
55016;DHT22;40919;43.236;21.590;2023-10-13T13:03:34;742.90;1740.80
55016;DHT22;40919;43.236;21.590;2023-10-13T13:06:00;743.00;1792.00
55016;DHT22;40919;43.236;21.590;2023-10-13T13:08:33;742.90;1740.80
55016;DHT22;40919;43.236;21.590;2023-10-13T13:11:10;742.80;1715.20
55016;DHT22;40919;43.236;21.590;2023-10-13T13:13:36;742.60;1740.80
55016;DHT22;40919;43.236;21.590;2023-10-13T13:16:02;742.50;1740.80
55016;DHT22;40919;43.236;21.590;2023-10-13T13:18:29;742.40;1766.40
55016;DHT22;40919;43.236;21.590;2023-10-13T13:20:55;717.70;1740.80
55016;DHT22;40919;43.236;21.590;2023-10-13T13:23:22;742.40;1766.40
55016;DHT22;40919;43.236;21.590;2023-10-13T13:25:56;717.60;1740.80
55016;DHT22;40919;43.236;21.590;2023-10-13T13:28:22;742.60;1792.00
55016;DHT22;40919;43.236;21.590;2023-10-13T13:30:50;742.50;1766.40
55016;DHT22;40919;43.236;21.590;2023-10-13T13:33:18;742.60;1740.80
55016;DHT22;40919;43.236;21.590;2023-10-13T13:35:52;742.70;1792.00
55016;DHT22;40919;43.236;21.590;2023-10-13T13:38:18;742.80;1740.80
55016;DHT22;40919;43.236;21.590;2023-10-13T13:40:54;742.90;1766.40
55016;DHT22;40919;43.236;21.590;2023-10-13T13:43:21;742.70;1740.80
55016;DHT22;40919;43.236;21.590;2023-10-13T13:46:06;742.60;1740.80
55016;DHT22;40919;43.236;21.590;2023-10-13T13:48:39;742.40;1740.80
55016;DHT22;40919;43.236;21.590;2023-10-13T13:51:07;742.50;1766.40
55016;DHT22;40919;43.236;21.590;2023-10-13T13:53:52;742.40;1766.40
55016;DHT22;40919;43.236;21.590;2023-10-13T13:56:18;742.40;1792.00
55016;DHT22;40919;43.236;21.590;2023-10-13T13:58:45;717.50;1766.40
55016;DHT22;40919;43.236;21.590;2023-10-13T14:01:11;717.40;1792.00
55016;DHT22;40919;43.236;21.590;2023-10-13T14:03:42;717.00;1817.60
55016;DHT22;40919;43.236;21.590;2023-10-13T14:06:12;691.90;1792.00
55016;DHT22;40919;43.236;21.590;2023-10-13T14:08:44;691.70;1817.60
55016;DHT22;40919;43.236;21.590;2023-10-13T14:11:16;691.60;1817.60
55016;DHT22;40919;43.236;21.590;2023-10-13T14:13:51;691.50;1868.80
55016;DHT22;40919;43.236;21.590;2023-10-13T14:21:18;691.30;1868.80
55016;DHT22;40919;43.236;21.590;2023-10-13T14:23:48;666.30;1894.40
55016;DHT22;40919;43.236;21.590;2023-10-13T14:26:16;666.20;1868.80
55016;DHT22;40919;43.236;21.590;2023-10-13T14:28:55;666.10;1920.00
55016;DHT22;40919;43.236;21.590;2023-10-13T14:31:32;666.00;1945.60
55016;DHT22;40919;43.236;21.590;2023-10-13T14:33:58;665.90;1945.60
55016;DHT22;40919;43.236;21.590;2023-10-13T14:36:25;666.00;1971.20
55016;DHT22;40919;43.236;21.590;2023-10-13T14:38:57;665.80;1971.20
55016;DHT22;40919;43.236;21.590;2023-10-13T14:41:22;665.80;1971.20
55016;DHT22;40919;43.236;21.590;2023-10-13T14:43:48;665.60;1971.20
55016;DHT22;40919;43.236;21.590;2023-10-13T14:46:15;665.60;1996.80
55016;DHT22;40919;43.236;21.590;2023-10-13T14:53:44;665.60;1996.80
55016;DHT22;40919;43.236;21.590;2023-10-13T14:56:14;640.60;1996.80
55016;DHT22;40919;43.236;21.590;2023-10-13T14:58:40;640.60;2022.40
55016;DHT22;40919;43.236;21.590;2023-10-13T15:01:16;640.50;2048.00
55016;DHT22;40919;43.236;21.590;2023-10-13T15:03:43;640.30;2073.60
55016;DHT22;40919;43.236;21.590;2023-10-13T15:06:19;640.30;2124.80
55016;DHT22;40919;43.236;21.590;2023-10-13T15:08:57;640.10;2073.60
55016;DHT22;40919;43.236;21.590;2023-10-13T15:11:24;615.30;2124.80
55016;DHT22;40919;43.236;21.590;2023-10-13T15:13:54;615.00;2150.40
55016;DHT22;40919;43.236;21.590;2023-10-13T15:16:24;614.90;2176.00
55016;DHT22;40919;43.236;21.590;2023-10-13T15:18:51;614.80;2150.40
55016;DHT22;40919;43.236;21.590;2023-10-13T15:21:22;614.80;2150.40
55016;DHT22;40919;43.236;21.590;2023-10-13T15:23:49;614.60;2176.00
55016;DHT22;40919;43.236;21.590;2023-10-13T15:26:17;614.60;2150.40
55016;DHT22;40919;43.236;21.590;2023-10-13T15:28:44;589.40;2150.40
55016;DHT22;40919;43.236;21.590;2023-10-13T15:31:19;614.40;2176.00
55016;DHT22;40919;43.236;21.590;2023-10-13T15:34:03;589.70;2150.40
55016;DHT22;40919;43.236;21.590;2023-10-13T15:36:35;589.70;2201.60
55016;DHT22;40919;43.236;21.590;2023-10-13T15:39:01;589.50;2201.60
55016;DHT22;40919;43.236;21.590;2023-10-13T15:41:28;589.50;2201.60
55016;DHT22;40919;43.236;21.590;2023-10-13T15:43:54;589.40;2201.60
55016;DHT22;40919;43.236;21.590;2023-10-13T15:46:22;589.40;2201.60
55016;DHT22;40919;43.236;21.590;2023-10-13T15:48:52;589.20;2201.60
55016;DHT22;40919;43.236;21.590;2023-10-13T15:51:19;589.20;2176.00
55016;DHT22;40919;43.236;21.590;2023-10-13T15:58:49;564.10;2252.80
55016;DHT22;40919;43.236;21.590;2023-10-13T16:01:16;564.00;2278.40
55016;DHT22;40919;43.236;21.590;2023-10-13T16:03:43;563.80;2278.40
55016;DHT22;40919;43.236;21.590;2023-10-13T16:06:10;563.60;2304.00
55016;DHT22;40919;43.236;21.590;2023-10-13T16:08:40;563.60;2304.00
55016;DHT22;40919;43.236;21.590;2023-10-13T16:11:11;563.50;2329.60
55016;DHT22;40919;43.236;21.590;2023-10-13T16:13:43;563.30;2329.60
55016;DHT22;40919;43.236;21.590;2023-10-13T16:16:25;563.30;2355.20
55016;DHT22;40919;43.236;21.590;2023-10-13T16:18:53;538.50;2329.60
55016;DHT22;40919;43.236;21.590;2023-10-13T16:21:20;538.00;2329.60
55016;DHT22;40919;43.236;21.590;2023-10-13T16:23:46;538.50;2355.20
55016;DHT22;40919;43.236;21.590;2023-10-13T16:26:19;538.40;2380.80
55016;DHT22;40919;43.236;21.590;2023-10-13T16:28:48;538.20;2380.80
55016;DHT22;40919;43.236;21.590;2023-10-13T16:31:14;538.50;2355.20
55016;DHT22;40919;43.236;21.590;2023-10-13T16:33:40;538.00;2380.80
55016;DHT22;40919;43.236;21.590;2023-10-13T16:36:06;538.00;2380.80
55016;DHT22;40919;43.236;21.590;2023-10-13T16:38:38;538.00;2380.80
55016;DHT22;40919;43.236;21.590;2023-10-13T16:41:04;538.00;2380.80
55016;DHT22;40919;43.236;21.590;2023-10-13T16:43:38;537.90;2380.80
55016;DHT22;40919;43.236;21.590;2023-10-13T16:46:09;537.80;2380.80
55016;DHT22;40919;43.236;21.590;2023-10-13T16:48:37;537.70;2406.40
55016;DHT22;40919;43.236;21.590;2023-10-13T16:51:03;512.40;2380.80
55016;DHT22;40919;43.236;21.590;2023-10-13T16:53:32;512.80;2380.80
55016;DHT22;40919;43.236;21.590;2023-10-13T16:58:28;512.90;2380.80
55016;DHT22;40919;43.236;21.590;2023-10-13T17:00:56;512.80;2380.80
55016;DHT22;40919;43.236;21.590;2023-10-13T17:03:22;512.50;2380.80
55016;DHT22;40919;43.236;21.590;2023-10-13T17:05:57;512.30;2380.80
55016;DHT22;40919;43.236;21.590;2023-10-13T17:08:28;512.30;2380.80
55016;DHT22;40919;43.236;21.590;2023-10-13T17:11:06;512.30;2380.80
55016;DHT22;40919;43.236;21.590;2023-10-13T17:13:32;512.20;2380.80
55016;DHT22;40919;43.236;21.590;2023-10-13T17:15:58;512.20;2380.80
55016;DHT22;40919;43.236;21.590;2023-10-13T17:18:25;512.10;2380.80
55016;DHT22;40919;43.236;21.590;2023-10-13T17:20:53;512.00;2380.80
55016;DHT22;40919;43.236;21.590;2023-10-13T17:23:21;512.00;2380.80
55016;DHT22;40919;43.236;21.590;2023-10-13T17:25:46;487.30;2380.80
55016;DHT22;40919;43.236;21.590;2023-10-13T17:28:13;487.20;2380.80
55016;DHT22;40919;43.236;21.590;2023-10-13T17:30:42;487.30;2380.80
55016;DHT22;40919;43.236;21.590;2023-10-13T17:33:11;487.30;2380.80
55016;DHT22;40919;43.236;21.590;2023-10-13T17:35:38;487.20;2380.80
55016;DHT22;40919;43.236;21.590;2023-10-13T17:38:06;487.20;2380.80
55016;DHT22;40919;43.236;21.590;2023-10-13T18:07:40;486.80;2380.80
55016;DHT22;40919;43.236;21.590;2023-10-13T18:10:11;486.70;2380.80
55016;DHT22;40919;43.236;21.590;2023-10-13T18:12:44;461.50;2380.80
55016;DHT22;40919;43.236;21.590;2023-10-13T18:15:12;486.40;2380.80
55016;DHT22;40919;43.236;21.590;2023-10-13T18:32:41;486.40;2380.80
55016;DHT22;40919;43.236;21.590;2023-10-13T18:37:38;461.70;2380.80
55016;DHT22;40919;43.236;21.590;2023-10-13T18:40:05;461.60;2380.80
55016;DHT22;40919;43.236;21.590;2023-10-13T18:59:50;461.40;2380.80
55016;DHT22;40919;43.236;21.590;2023-10-13T19:02:20;461.20;2380.80
